Time;durP1;ratioP1;P1;durP2;ratioP2;P2;SDS_P1;SDS_P2;PMS_P1;PMS_P2;Temp;Humidity;BMP_temperature;BMP_pressure;BME280_temperature;BME280_humidity;BME280_pressure;Samples;Min_cycle;Max_cycle;Signal;HPM_P1;HPM_P2
2022/09/19 00:00:33;;;;;;;12.32;2.85;;;;;;;7.75;100.00;101760.81;5054677;28;20028;-55
2022/09/19 00:02:58;;;;;;;10.15;2.30;;;;;;;7.78;100.00;101766.81;5053049;28;20025;-54
2022/09/19 00:05:23;;;;;;;10.23;2.38;;;;;;;7.76;100.00;101760.75;5047716;28;20037;-54
2022/09/19 00:07:48;;;;;;;15.68;2.75;;;;;;;7.71;100.00;101757.47;5050195;28;20504;-54
2022/09/19 00:10:14;;;;;;;10.55;2.50;;;;;;;7.71;100.00;101770.69;5052694;28;20318;-55
2022/09/19 00:12:39;;;;;;;10.27;2.45;;;;;;;7.67;99.94;101766.47;5059668;28;20028;-53
2022/09/19 00:15:06;;;;;;;10.05;2.90;;;;;;;7.66;99.93;101756.84;5054519;28;20033;-54
2022/09/19 00:17:31;;;;;;;5.90;2.33;;;;;;;7.65;100.00;101759.56;5057843;28;20378;-54
2022/09/19 00:19:56;;;;;;;10.18;2.33;;;;;;;7.61;99.91;101761.53;5060046;28;20033;-54
2022/09/19 00:22:21;;;;;;;7.22;2.25;;;;;;;7.59;99.82;101764.22;5061634;28;20041;-54
2022/09/19 00:24:49;;;;;;;7.53;3.00;;;;;;;7.55;99.49;101760.00;5059709;28;20498;-54
2022/09/19 00:27:21;;;;;;;13.27;3.25;;;;;;;7.54;99.91;101760.09;5064478;28;20497;-54
2022/09/19 00:29:48;;;;;;;9.07;2.85;;;;;;;7.55;100.00;101761.81;5051589;28;20116;-53
2022/09/19 00:32:15;;;;;;;15.95;3.08;;;;;;;7.49;99.78;101762.94;5054576;28;20029;-53
2022/09/19 00:34:43;;;;;;;11.05;2.47;;;;;;;7.51;99.64;101763.75;5054931;28;20025;-55
2022/09/19 00:37:08;;;;;;;7.25;2.88;;;;;;;7.46;99.18;101767.53;5054134;28;20024;-54
2022/09/19 00:39:34;;;;;;;6.20;2.50;;;;;;;7.46;99.73;101768.41;5049566;28;20032;-55
2022/09/19 00:41:59;;;;;;;7.20;2.20;;;;;;;7.45;99.94;101763.19;5050085;28;20103;-55
2022/09/19 00:44:25;;;;;;;9.23;2.67;;;;;;;7.41;99.91;101778.31;5051200;28;20430;-53
2022/09/19 00:46:53;;;;;;;5.93;2.60;;;;;;;7.37;99.87;101777.63;5050080;28;20532;-55
2022/09/19 00:49:20;;;;;;;8.35;2.40;;;;;;;7.37;100.00;101780.25;5051970;28;20116;-54
2022/09/19 00:51:49;;;;;;;12.63;2.50;;;;;;;7.34;100.00;101772.47;5086315;22;20339;-80
2022/09/19 00:54:28;;;;;;;11.25;2.58;;;;;;;7.35;100.00;101776.84;5056742;28;20045;-78
2022/09/19 00:56:55;;;;;;;14.32;3.05;;;;;;;7.37;100.00;101774.13;5053795;28;20061;-78
2022/09/19 00:59:25;;;;;;;11.80;2.70;;;;;;;7.27;100.00;101759.66;5050240;28;20022;-78
2022/09/19 01:01:54;;;;;;;9.25;2.42;;;;;;;7.32;100.00;101770.84;5047355;28;20451;-78
2022/09/19 01:04:22;;;;;;;13.90;2.88;;;;;;;7.30;100.00;101773.56;5050468;28;20029;-78
2022/09/19 01:07:03;;;;;;;12.13;2.67;;;;;;;7.31;100.00;101771.78;5052773;28;20096;-79
2022/09/19 01:09:54;;;;;;;9.60;2.40;;;;;;;7.24;100.00;101765.94;5050841;28;20040;-78
2022/09/19 01:12:44;;;;;;;14.40;2.45;;;;;;;7.29;100.00;101777.13;5051021;28;20040;-78
2022/09/19 01:15:41;;;;;;;12.40;3.08;;;;;;;7.28;100.00;101779.84;5044912;28;20085;-79
2022/09/19 01:18:08;;;;;;;9.68;2.47;;;;;;;7.26;100.00;101787.00;5036622;28;20033;-78
2022/09/19 01:20:56;;;;;;;15.73;3.10;;;;;;;7.27;100.00;101784.28;5050715;28;20024;-79
2022/09/19 01:23:46;;;;;;;10.75;2.85;;;;;;;7.27;100.00;101778.16;5058439;28;20120;-78
2022/09/19 01:26:37;;;;;;;17.02;2.63;;;;;;;7.21;100.00;101782.81;5049036;28;20376;-78
2022/09/19 01:29:20;;;;;;;7.90;2.53;;;;;;;7.16;100.00;101783.94;5059695;28;20036;-79
2022/09/19 01:31:51;;;;;;;9.68;3.20;;;;;;;7.17;100.00;101799.72;5050905;28;20057;-78
2022/09/19 01:34:27;;;;;;;7.80;2.38;;;;;;;7.17;100.00;101801.50;5041032;28;20018;-78
2022/09/19 01:37:03;;;;;;;9.90;2.55;;;;;;;7.16;100.00;101800.66;5055094;28;20044;-77
2022/09/19 01:39:32;;;;;;;11.13;2.33;;;;;;;7.14;100.00;101799.00;5048632;28;20104;-77
2022/09/19 01:41:59;;;;;;;12.65;2.97;;;;;;;7.08;100.00;101788.72;5057498;28;20056;-77
2022/09/19 01:44:26;;;;;;;11.40;2.47;;;;;;;7.11;100.00;101799.13;5046242;28;20091;-77
2022/09/19 01:47:18;;;;;;;10.52;2.72;;;;;;;7.12;100.00;101793.78;5054870;28;20041;-78
2022/09/19 01:50:08;;;;;;;12.48;2.85;;;;;;;7.14;100.00;101805.13;5066240;28;20013;-79
2022/09/19 01:53:01;;;;;;;7.07;2.30;;;;;;;7.13;100.00;101802.59;5045484;28;20053;-77
2022/09/19 01:55:33;;;;;;;9.02;2.67;;;;;;;7.08;100.00;101800.16;5049465;28;20081;-77
2022/09/19 01:58:04;;;;;;;10.10;2.50;;;;;;;7.07;100.00;101801.06;5049219;28;20053;-77
2022/09/19 02:00:29;;;;;;;11.10;2.83;;;;;;;7.07;100.00;101800.22;5052264;28;20086;-78
2022/09/19 02:03:22;;;;;;;13.35;2.90;;;;;;;7.04;100.00;101802.09;5066656;28;20033;-77
2022/09/19 02:06:19;;;;;;;10.18;2.75;;;;;;;7.07;100.00;101801.06;5054320;28;20021;-78
2022/09/19 02:08:59;;;;;;;9.18;2.40;;;;;;;7.02;100.00;101797.78;5059103;28;20041;-77
2022/09/19 02:11:25;;;;;;;9.93;2.53;;;;;;;7.02;100.00;101796.00;5044595;28;20112;-77
2022/09/19 02:13:58;;;;;;;14.38;2.85;;;;;;;7.00;100.00;101791.72;5051022;28;20056;-77
2022/09/19 02:16:30;;;;;;;10.90;2.63;;;;;;;6.97;100.00;101791.88;5050916;28;20010;-78
2022/09/19 02:19:09;;;;;;;6.72;2.28;;;;;;;6.99;100.00;101790.84;5042892;28;20044;-78
2022/09/19 02:21:42;;;;;;;11.77;2.47;;;;;;;6.84;100.00;101781.88;5054546;28;20019;-77
2022/09/19 02:24:13;;;;;;;11.38;2.60;;;;;;;6.98;100.00;101815.56;5054926;28;20059;-77
2022/09/19 02:26:40;;;;;;;10.80;2.75;;;;;;;6.96;100.00;101811.28;5052866;28;20018;-78
2022/09/19 02:29:08;;;;;;;7.63;2.50;;;;;;;6.90;100.00;101804.50;5062562;28;20021;-79
2022/09/19 02:31:34;;;;;;;10.00;2.33;;;;;;;6.94;100.00;101813.13;5053208;28;20033;-78
2022/09/19 02:34:05;;;;;;;13.77;2.72;;;;;;;6.88;100.00;101811.63;5050062;28;20025;-77
2022/09/19 02:36:42;;;;;;;8.25;2.30;;;;;;;6.92;100.00;101812.34;5063116;28;20652;-77
2022/09/19 02:39:10;;;;;;;9.82;2.60;;;;;;;6.92;100.00;101812.34;5066142;28;20056;-78
2022/09/19 02:41:51;;;;;;;12.77;2.38;;;;;;;6.89;100.00;101821.25;5063323;28;20041;-78
2022/09/19 02:44:38;;;;;;;9.15;2.47;;;;;;;6.88;100.00;101814.28;5042439;28;20028;-79
2022/09/19 02:47:17;;;;;;;7.53;2.20;;;;;;;6.89;100.00;101820.41;5047268;28;20056;-78
2022/09/19 02:50:00;;;;;;;9.07;2.72;;;;;;;6.81;100.00;101815.47;5057380;28;20043;-78
2022/09/19 02:52:33;;;;;;;12.50;2.42;;;;;;;6.86;100.00;101824.03;5055705;28;20103;-78
2022/09/19 02:55:12;;;;;;;9.77;2.08;;;;;;;6.81;100.00;101818.09;5052963;28;20026;-78
2022/09/19 02:57:40;;;;;;;9.55;2.22;;;;;;;6.77;100.00;101813.91;5064008;28;20136;-78
2022/09/19 03:00:06;;;;;;;11.18;2.78;;;;;;;6.76;100.00;101823.63;5059140;28;20032;-79
2022/09/19 03:02:39;;;;;;;8.25;2.05;;;;;;;6.69;100.00;101810.75;5054494;28;20346;-78
2022/09/19 03:05:19;;;;;;;8.30;2.72;;;;;;;6.76;100.00;101818.34;5062453;28;20093;-78
2022/09/19 03:08:04;;;;;;;6.68;2.20;;;;;;;6.78;100.00;101824.41;5057152;28;20492;-78
2022/09/19 03:10:35;;;;;;;11.43;2.55;;;;;;;6.69;100.00;101816.03;5043056;28;20046;-78
2022/09/19 03:13:03;;;;;;;11.90;2.67;;;;;;;6.65;100.00;101815.31;5054357;28;20370;-78
2022/09/19 03:15:36;;;;;;;10.15;2.33;;;;;;;6.71;100.00;101828.25;5046914;28;20081;-78
2022/09/19 03:18:09;;;;;;;9.45;2.15;;;;;;;6.72;100.00;101829.09;5063843;28;20058;-79
2022/09/19 03:20:39;;;;;;;12.10;2.33;;;;;;;6.67;100.00;101829.28;5042170;28;20030;-79
2022/09/19 03:23:06;;;;;;;10.02;2.42;;;;;;;6.68;100.00;101817.81;5042093;28;20022;-78
2022/09/19 03:25:32;;;;;;;10.70;2.13;;;;;;;6.69;100.00;101823.94;5046267;28;20033;-81
2022/09/19 03:27:57;;;;;;;8.73;2.30;;;;;;;6.67;100.00;101830.13;5062779;28;20085;-78
2022/09/19 03:30:23;;;;;;;14.50;2.50;;;;;;;6.66;100.00;101823.16;5036356;28;20056;-79
2022/09/19 03:32:49;;;;;;;13.23;2.50;;;;;;;6.67;100.00;101827.50;5043115;28;20033;-80
2022/09/19 03:35:15;;;;;;;11.40;2.58;;;;;;;6.69;100.00;101835.34;5040148;28;20029;-79
2022/09/19 03:37:40;;;;;;;11.68;2.80;;;;;;;6.67;100.00;101826.66;5050109;28;20026;-78
2022/09/19 03:40:07;;;;;;;11.00;2.60;;;;;;;6.68;100.00;101825.75;5048865;28;20077;-79
2022/09/19 03:42:34;;;;;;;11.35;2.38;;;;;;;6.75;100.00;101831.59;5064204;28;20048;-78
2022/09/19 03:45:00;;;;;;;10.18;2.70;;;;;;;6.77;100.00;101833.22;5041355;28;20059;-79
2022/09/19 03:47:25;;;;;;;10.45;2.30;;;;;;;6.74;100.00;101828.09;5049618;28;20049;-79
2022/09/19 03:49:51;;;;;;;7.82;2.42;;;;;;;6.78;100.00;101823.56;5040863;28;20045;-79
2022/09/19 03:52:19;;;;;;;9.32;2.58;;;;;;;6.79;100.00;101833.16;5047653;28;20069;-79
2022/09/19 03:54:44;;;;;;;9.57;2.80;;;;;;;6.79;100.00;101827.88;5051158;28;20047;-78
2022/09/19 03:57:10;;;;;;;11.75;2.30;;;;;;;6.81;100.00;101829.53;5050617;28;20069;-78
2022/09/19 03:59:41;;;;;;;11.05;2.55;;;;;;;6.83;100.00;101835.59;5043431;28;20036;-78
2022/09/19 04:02:07;;;;;;;12.65;2.92;;;;;;;6.83;100.00;101835.59;5058708;28;20037;-78
2022/09/19 04:04:33;;;;;;;8.18;2.90;;;;;;;6.83;100.00;101832.97;5040766;28;20022;-78
2022/09/19 04:06:58;;;;;;;20.83;3.60;;;;;;;6.91;100.00;101837.03;5051700;28;20036;-78
2022/09/19 04:09:25;;;;;;;14.70;2.97;;;;;;;6.88;100.00;101835.41;5062599;28;20036;-78
2022/09/19 04:11:51;;;;;;;11.90;2.83;;;;;;;6.92;100.00;101839.59;5037436;28;20045;-79
2022/09/19 04:14:17;;;;;;;12.00;2.85;;;;;;;6.93;100.00;101846.63;5039630;28;20061;-78
2022/09/19 04:16:42;;;;;;;10.65;2.75;;;;;;;6.92;100.00;101844.91;5051176;28;20459;-78
2022/09/19 04:19:12;;;;;;;9.75;2.90;;;;;;;6.92;100.00;101844.91;5058164;28;20056;-78
2022/09/19 04:21:41;;;;;;;;;;;;;;;7.03;100.00;101852.34;5032270;28;20025;-78
2022/09/19 04:24:08;;;;;;;9.38;2.22;;;;;;;6.94;100.00;101845.66;5039270;28;19970;-78
2022/09/19 04:26:33;;;;;;;10.73;2.53;;;;;;;6.92;100.00;101844.91;5038194;28;20056;-79
2022/09/19 04:29:02;;;;;;;11.27;2.42;;;;;;;6.98;100.00;101855.19;5044943;28;20025;-78
2022/09/19 04:31:28;;;;;;;;;;;;;;;7.06;100.00;101860.13;5045612;28;20060;-78
2022/09/19 04:33:56;;;;;;;11.50;2.28;;;;;;;7.02;100.00;101858.53;5051541;28;19924;-79
2022/09/19 04:36:23;;;;;;;14.52;3.00;;;;;;;7.01;100.00;101854.16;5043985;28;20109;-78
2022/09/19 04:38:49;;;;;;;10.48;2.97;;;;;;;7.00;100.00;101850.69;5054769;28;20036;-78
2022/09/19 04:41:14;;;;;;;11.50;2.90;;;;;;;7.01;100.00;101849.78;5050203;28;20052;-78
2022/09/19 04:43:40;;;;;;;14.55;2.72;;;;;;;7.06;100.00;101862.78;5049580;28;20029;-80
2022/09/19 04:46:06;;;;;;;13.32;2.72;;;;;;;7.08;100.00;101865.31;5049263;28;20029;-80
2022/09/19 04:48:32;;;;;;;9.68;2.60;;;;;;;7.08;100.00;101858.28;5050471;28;20025;-78
2022/09/19 04:50:57;;;;;;;13.73;2.90;;;;;;;7.11;100.00;101863.41;5043503;28;20093;-79
2022/09/19 04:53:27;;;;;;;11.38;2.88;;;;;;;7.06;100.00;101857.50;5045013;28;20037;-79
2022/09/19 04:55:54;;;;;;;13.88;2.67;;;;;;;7.11;100.00;101874.00;5056451;28;20087;-79
2022/09/19 04:58:21;;;;;;;12.93;3.05;;;;;;;7.10;100.00;101871.41;5045288;28;20093;-79
2022/09/19 05:00:53;;;;;;;11.20;2.60;;;;;;;7.10;100.00;101861.69;5048135;28;20022;-79
2022/09/19 05:03:19;;;;;;;15.52;2.95;;;;;;;7.18;100.00;101870.13;5037729;28;20049;-79
2022/09/19 05:05:50;;;;;;;11.18;2.92;;;;;;;7.16;100.00;101879.03;5054449;28;20029;-80
2022/09/19 05:08:19;;;;;;;13.10;2.85;;;;;;;7.18;100.00;101878.06;5058739;28;20033;-79
2022/09/19 05:10:45;;;;;;;;;;;;;;;7.28;100.00;101878.50;5043504;28;20022;-80
2022/09/19 05:13:11;;;;;;;16.80;2.88;;;;;;;7.27;100.00;101882.06;5060923;28;19924;-79
2022/09/19 05:15:40;;;;;;;10.73;3.05;;;;;;;7.27;100.00;101878.56;5063533;28;20040;-81
2022/09/19 05:18:05;;;;;;;10.13;2.28;;;;;;;7.30;100.00;101881.91;5057660;28;20081;-80
2022/09/19 05:20:30;;;;;;;8.70;2.75;;;;;;;7.34;100.00;101887.91;5054612;28;20033;-80
2022/09/19 05:22:58;;;;;;;9.20;2.80;;;;;;;7.33;100.00;101884.41;5061380;28;20044;-80
2022/09/19 05:25:27;;;;;;;15.18;3.85;;;;;;;7.39;100.00;101891.19;5047171;28;20021;-79
2022/09/19 05:27:54;;;;;;;13.95;2.85;;;;;;;7.41;100.00;101889.34;5046510;28;20051;-79
2022/09/19 05:30:24;;;;;;;17.05;3.22;;;;;;;7.45;100.00;101898.84;5052654;28;20025;-78
2022/09/19 05:32:50;;;;;;;13.63;3.00;;;;;;;7.47;100.00;101896.97;5038744;28;20037;-79
2022/09/19 05:35:15;;;;;;;15.57;3.30;;;;;;;7.49;100.00;101900.41;5051177;28;20034;-79
2022/09/19 05:37:41;;;;;;;12.02;3.08;;;;;;;7.53;100.00;101902.00;5055717;28;20021;-78
2022/09/19 05:40:08;;;;;;;11.88;3.00;;;;;;;7.56;100.00;101906.25;5061891;28;20032;-78
2022/09/19 05:42:34;;;;;;;10.00;2.70;;;;;;;7.58;100.00;101897.34;5052826;28;20040;-78
2022/09/19 05:44:59;;;;;;;12.95;2.88;;;;;;;7.55;100.00;101905.41;5055472;28;20326;-78
2022/09/19 05:47:25;;;;;;;11.32;3.00;;;;;;;7.58;100.00;101901.78;5057603;28;20033;-79
2022/09/19 05:49:50;;;;;;;10.40;3.10;;;;;;;7.56;100.00;101891.28;5055722;28;20047;-80
2022/09/19 05:54:59;;;;;;;13.95;3.45;;;;;;;7.68;100.00;101907.50;5046990;28;20024;-79
2022/09/19 05:57:25;;;;;;;15.50;2.97;;;;;;;7.70;100.00;101916.22;5045622;28;20025;-79
2022/09/19 05:59:50;;;;;;;12.93;2.85;;;;;;;7.71;100.00;101909.97;5054017;28;20327;-80
2022/09/19 06:02:16;;;;;;;14.70;3.53;;;;;;;7.69;100.00;101906.56;5055703;28;20029;-79
2022/09/19 06:04:42;;;;;;;14.70;3.50;;;;;;;7.65;100.00;101897.91;5041786;28;20037;-79
2022/09/19 06:07:08;;;;;;;10.63;3.38;;;;;;;7.75;100.00;101912.41;5039117;28;20044;-80
2022/09/19 06:09:34;;;;;;;12.10;3.17;;;;;;;7.78;100.00;101914.91;5041447;28;20063;-78
2022/09/19 06:11:59;;;;;;;17.13;3.28;;;;;;;7.83;100.00;101919.09;5051323;28;20033;-79
2022/09/19 06:14:27;;;;;;;16.48;3.88;;;;;;;7.88;100.00;101919.78;5052459;28;20025;-79
2022/09/19 06:16:53;;;;;;;15.93;3.35;;;;;;;7.93;100.00;101923.06;5047077;28;20093;-79
2022/09/19 06:19:19;;;;;;;17.38;3.33;;;;;;;7.95;100.00;101914.09;5040736;28;20484;-79
2022/09/19 06:21:44;;;;;;;21.15;3.80;;;;;;;8.04;100.00;101919.88;5054907;28;20025;-79
2022/09/19 06:24:11;;;;;;;18.48;3.83;;;;;;;8.08;100.00;101917.00;5036378;28;20045;-79
2022/09/19 06:26:36;;;;;;;18.77;3.65;;;;;;;8.18;100.00;101920.06;5058495;28;20029;-80
2022/09/19 06:29:03;;;;;;;21.35;3.78;;;;;;;8.25;100.00;101928.56;5051383;28;20049;-79
2022/09/19 06:31:28;;;;;;;15.88;3.90;;;;;;;8.29;100.00;101923.03;5049748;28;20373;-79
2022/09/19 06:33:54;;;;;;;17.35;3.50;;;;;;;8.32;100.00;101916.72;5048132;28;20084;-80
2022/09/19 06:36:19;;;;;;;16.70;3.85;;;;;;;8.43;100.00;101932.13;5047387;28;20036;-79
2022/09/19 06:38:45;;;;;;;15.52;4.15;;;;;;;8.44;100.00;101928.53;5042331;28;20023;-81
2022/09/19 06:41:11;;;;;;;14.18;3.55;;;;;;;8.52;100.00;101934.28;5041329;28;20408;-80
2022/09/19 06:43:36;;;;;;;16.05;3.80;;;;;;;8.58;100.00;101936.63;5046093;28;20029;-80
2022/09/19 06:46:02;;;;;;;14.35;3.35;;;;;;;8.55;100.00;101926.19;5045212;28;20052;-79
2022/09/19 06:48:28;;;;;;;13.68;3.22;;;;;;;8.68;100.00;101940.53;5041266;28;20060;-80
2022/09/19 06:50:53;;;;;;;13.10;3.90;;;;;;;8.76;100.00;101948.09;5040878;28;20033;-79
2022/09/19 06:53:19;;;;;;;15.77;3.33;;;;;;;8.81;100.00;101946.06;5039566;28;20101;-80
2022/09/19 06:55:44;;;;;;;13.88;3.85;;;;;;;8.93;100.00;101952.50;5040058;28;20049;-79
2022/09/19 06:58:11;;;;;;;26.05;4.53;;;;;;;8.99;100.00;101953.97;5043790;28;20567;-79
2022/09/19 07:00:38;;;;;;;17.33;4.43;;;;;;;9.09;100.00;101952.56;5041517;28;20045;-79
2022/09/19 07:03:05;;;;;;;15.50;4.15;;;;;;;9.16;100.00;101964.56;5039339;28;20033;-79
2022/09/19 07:05:31;;;;;;;20.15;4.32;;;;;;;9.26;100.00;101956.97;5041496;28;20068;-79
2022/09/19 07:07:57;;;;;;;15.05;3.83;;;;;;;9.33;100.00;101960.16;5040959;28;20065;-81
2022/09/19 07:10:23;;;;;;;18.73;4.13;;;;;;;9.47;100.00;101962.06;5038628;28;20041;-78
2022/09/19 07:12:56;;;;;;;17.75;4.80;;;;;;;9.54;100.00;101968.75;5037879;28;20092;-81
2022/09/19 07:15:23;;;;;;;20.52;3.97;;;;;;;9.71;100.00;101971.34;5039948;28;20083;-79
2022/09/19 07:17:49;;;;;;;20.60;4.22;;;;;;;9.85;100.00;101972.38;5039231;28;20037;-79
2022/09/19 07:20:14;;;;;;;24.05;4.85;;;;;;;10.01;100.00;101978.56;5041961;28;20463;-79
2022/09/19 07:22:40;;;;;;;21.20;4.28;;;;;;;10.09;100.00;101978.09;5054126;28;20056;-80
2022/09/19 07:25:07;;;;;;;21.33;4.05;;;;;;;10.13;100.00;101969.88;5047463;28;20033;-80
2022/09/19 07:27:33;;;;;;;15.77;3.95;;;;;;;10.24;100.00;101977.25;5042385;28;20037;-79
2022/09/19 07:29:58;;;;;;;19.67;4.07;;;;;;;10.40;100.00;101982.56;5042217;28;20086;-80
2022/09/19 07:32:23;;;;;;;18.27;4.27;;;;;;;10.45;100.00;101987.59;5044658;28;20099;-79
2022/09/19 07:34:49;;;;;;;15.77;3.85;;;;;;;10.52;100.00;101987.16;5045848;28;20338;-80
2022/09/19 07:37:16;;;;;;;16.88;3.72;;;;;;;10.61;100.00;101993.75;5039495;28;20068;-80
2022/09/19 07:39:42;;;;;;;19.40;3.90;;;;;;;10.72;100.00;101998.41;5044138;28;20041;-79
2022/09/19 07:42:07;;;;;;;18.55;4.10;;;;;;;10.81;100.00;101991.69;5035670;28;20038;-80
2022/09/19 07:44:32;;;;;;;15.85;3.75;;;;;;;10.88;100.00;101993.91;5037941;28;20423;-80
2022/09/19 07:49:58;;;;;;;15.85;4.03;;;;;;;11.07;100.00;102003.44;5038065;28;20044;-80
2022/09/19 07:52:24;;;;;;;16.05;3.67;;;;;;;11.12;100.00;101998.69;5042797;28;20054;-80
2022/09/19 07:54:50;;;;;;;14.25;3.30;;;;;;;11.19;100.00;102002.72;5047442;28;20043;-78
2022/09/19 07:57:16;;;;;;;15.05;3.20;;;;;;;11.22;100.00;101999.84;5045953;28;20029;-80
2022/09/19 07:59:42;;;;;;;17.35;3.17;;;;;;;11.29;100.00;102002.97;5038149;28;20026;-79
2022/09/19 08:02:09;;;;;;;16.48;3.42;;;;;;;11.30;100.00;101996.72;5033518;28;20151;-80
2022/09/19 08:04:36;;;;;;;18.17;3.00;;;;;;;11.42;100.00;102017.28;5045203;28;20381;-77
2022/09/19 08:07:01;;;;;;;15.73;3.40;;;;;;;11.43;100.00;102010.13;5042881;28;20040;-79
2022/09/19 08:09:27;;;;;;;15.45;2.92;;;;;;;11.47;100.00;102012.53;5040951;28;20816;-80
2022/09/19 08:11:52;;;;;;;11.17;3.13;;;;;;;11.57;100.00;102019.91;5028237;28;20042;-80
2022/09/19 08:14:17;;;;;;;11.85;2.67;;;;;;;11.60;100.00;102017.91;5036318;28;20284;-79
2022/09/19 08:16:44;;;;;;;12.50;3.15;;;;;;;11.69;100.00;102020.97;5040198;28;20113;-81
2022/09/19 08:19:10;;;;;;;9.98;2.78;;;;;;;11.78;100.00;102028.38;5034181;28;20392;-80
2022/09/19 08:21:35;;;;;;;17.08;2.75;;;;;;;11.82;100.00;102020.09;5032760;28;20033;-79
2022/09/19 08:24:00;;;;;;;12.18;2.72;;;;;;;11.93;100.00;102022.09;5032749;28;20100;-79
2022/09/19 08:26:26;;;;;;;16.33;3.20;;;;;;;12.05;100.00;102024.94;5023363;28;20113;-79
2022/09/19 08:28:51;;;;;;;14.40;3.72;;;;;;;12.13;100.00;102028.81;5028344;28;20747;-79
2022/09/19 08:31:17;;;;;;;13.85;3.20;;;;;;;12.18;100.00;102026.72;5032461;28;20026;-79
2022/09/19 08:33:44;;;;;;;12.85;2.53;;;;;;;12.29;98.74;102034.03;5041885;28;20108;-79
2022/09/19 08:36:10;;;;;;;11.63;2.80;;;;;;;12.35;97.45;102040.75;5039946;28;20108;-79
2022/09/19 08:38:36;;;;;;;10.20;2.35;;;;;;;12.37;97.13;102034.38;5027754;28;20033;-80
2022/09/19 08:41:20;;;;;;;13.15;2.65;;;;;;;12.53;96.90;102039.56;5031618;28;20033;-80
2022/09/19 08:43:57;;;;;;;13.35;2.47;;;;;;;12.67;96.57;102043.97;5029615;28;20017;-79
2022/09/19 08:46:36;;;;;;;16.45;2.30;;;;;;;13.01;95.73;102048.88;5031952;28;20053;-78
2022/09/19 08:49:14;;;;;;;8.18;2.53;;;;;;;13.16;93.10;102052.31;5028401;28;20404;-78
2022/09/19 08:51:58;;;;;;;14.30;2.75;;;;;;;13.25;95.00;102046.31;5028201;28;20409;-79
2022/09/19 08:54:38;;;;;;;14.48;2.28;;;;;;;13.24;94.29;102040.16;5030143;28;20052;-79
2022/09/19 08:57:08;;;;;;;14.25;2.72;;;;;;;13.36;93.80;102037.63;5018808;28;20120;-79
2022/09/19 08:59:37;;;;;;;12.82;2.40;;;;;;;13.52;91.14;102035.56;5032598;28;20033;-79
2022/09/19 09:02:26;;;;;;;8.30;2.60;;;;;;;13.64;91.41;102031.22;5031785;28;20037;-78
2022/09/19 09:04:54;;;;;;;15.20;2.67;;;;;;;13.94;90.69;102043.31;5023248;28;20061;-79
2022/09/19 09:07:33;;;;;;;13.35;2.47;;;;;;;14.19;90.59;102029.91;5036828;28;20036;-79
2022/09/19 09:10:01;;;;;;;;;;;;;;;14.38;94.19;102025.88;5031122;28;20037;-80
2022/09/19 09:12:50;;;;;;;14.88;2.35;;;;;;;14.70;90.71;102022.66;5035866;28;20348;-79
2022/09/19 09:15:28;;;;;;;15.20;2.38;;;;;;;14.90;85.29;102034.50;5031832;28;20033;-79
2022/09/19 09:18:14;;;;;;;15.00;2.40;;;;;;;15.18;85.46;102039.44;5032634;28;20052;-79
2022/09/19 09:21:15;;;;;;;11.43;2.33;;;;;;;15.34;83.34;102019.53;5027452;28;20360;-79
2022/09/19 09:23:47;;;;;;;18.85;2.60;;;;;;;15.62;82.78;102038.78;5024001;28;20056;-79
2022/09/19 09:26:18;;;;;;;10.40;2.55;;;;;;;15.84;80.53;102036.13;5030245;28;20021;-79
2022/09/19 09:28:50;;;;;;;13.43;1.90;;;;;;;16.03;80.98;102030.13;5031669;28;20080;-80
2022/09/19 09:31:24;;;;;;;11.85;2.10;;;;;;;16.22;80.62;102021.47;5029652;28;20025;-79
2022/09/19 09:34:40;;;;;;;8.70;1.70;;;;;;;16.35;77.34;102034.69;5032466;28;20068;-79
2022/09/19 09:37:25;;;;;;;10.95;2.05;;;;;;;16.59;77.81;102028.28;5021296;28;20037;-79
2022/09/19 09:43:10;;;;;;;9.55;2.00;;;;;;;17.01;77.17;102042.63;5028739;28;20130;-79
2022/09/19 09:45:48;;;;;;;7.55;2.22;;;;;;;17.07;77.51;102035.03;5030949;28;20025;-80
2022/09/19 09:48:20;;;;;;;12.68;2.22;;;;;;;17.08;72.89;102042.09;5017776;28;20104;-79
2022/09/19 09:51:23;;;;;;;7.80;1.75;;;;;;;17.24;75.57;102041.66;5034885;28;20024;-80
2022/09/19 09:54:04;;;;;;;10.07;1.92;;;;;;;17.30;71.66;102035.72;5021990;28;20061;-79
2022/09/19 09:56:44;;;;;;;8.73;1.80;;;;;;;17.25;72.70;102025.38;5026880;28;20033;-80
2022/09/19 10:05:33;;;;;;;9.40;1.90;;;;;;;17.20;71.13;102036.53;5031860;28;20496;-81
2022/09/19 10:08:18;;;;;;;17.90;2.30;;;;;;;17.03;71.30;102037.13;5035825;28;20030;-79
2022/09/19 10:10:44;;;;;;;8.07;2.00;;;;;;;16.97;68.20;102045.69;5032753;28;20044;-80
2022/09/19 10:13:25;;;;;;;6.80;1.83;;;;;;;16.87;70.34;102039.41;5033188;28;20033;-80
2022/09/19 10:16:02;;;;;;;9.35;2.75;;;;;;;16.88;68.58;102044.63;5032944;28;20029;-80
2022/09/19 10:18:38;;;;;;;11.75;1.88;;;;;;;16.78;67.49;102036.47;5033171;28;20045;-80
2022/09/19 10:21:04;;;;;;;12.18;1.50;;;;;;;16.88;67.98;102039.28;5024230;28;20037;-81
2022/09/19 10:23:32;;;;;;;9.93;1.60;;;;;;;16.86;69.49;102033.19;5033763;28;20637;-82
2022/09/19 10:26:03;;;;;;;7.87;1.53;;;;;;;16.89;67.77;102045.50;5026725;28;20076;-81
2022/09/19 10:28:41;;;;;;;9.77;1.90;;;;;;;16.87;68.46;102045.63;5034651;28;20048;-81
2022/09/19 10:31:34;;;;;;;11.48;1.40;;;;;;;16.94;69.02;102040.59;5032257;28;20030;-81
2022/09/19 10:34:09;;;;;;;16.83;2.38;;;;;;;16.82;65.54;102037.94;5034831;28;20054;-81
2022/09/19 10:36:46;;;;;;;8.32;2.00;;;;;;;16.85;69.24;102050.25;5030931;28;20047;-81
2022/09/19 10:39:14;;;;;;;8.05;1.90;;;;;;;16.73;67.08;102038.69;5032442;28;20473;-81
2022/09/19 10:41:42;;;;;;;10.43;2.78;;;;;;;16.74;71.50;102053.81;5034444;28;20056;-81
2022/09/19 10:44:21;;;;;;;13.23;2.85;;;;;;;16.67;72.38;102059.81;5035124;28;20038;-80
2022/09/19 10:46:50;;;;;;;11.43;2.25;;;;;;;16.54;74.89;102058.16;5040483;28;20164;-81
2022/09/19 10:49:22;;;;;;;11.73;1.88;;;;;;;16.42;72.85;102052.00;5031297;28;20463;-81
2022/09/19 10:51:51;;;;;;;8.65;1.95;;;;;;;16.23;73.80;102043.75;5029044;28;20045;-81
2022/09/19 10:54:37;;;;;;;12.27;2.67;;;;;;;16.28;77.06;102050.41;5026742;28;20096;-81
2022/09/19 10:57:04;;;;;;;12.68;2.28;;;;;;;16.21;78.10;102038.50;5032951;28;20026;-80
2022/09/19 10:59:36;;;;;;;8.57;2.03;;;;;;;16.46;76.58;102040.03;5037509;28;20171;-80
2022/09/19 11:02:22;;;;;;;14.85;2.50;;;;;;;16.60;77.83;102038.03;5046202;28;20033;-81
2022/09/19 11:05:09;;;;;;;12.85;2.38;;;;;;;16.65;76.83;102035.81;5036832;28;20040;-80
2022/09/19 11:07:54;;;;;;;9.15;1.88;;;;;;;16.63;77.53;102019.84;5027114;28;20417;-81
2022/09/19 11:10:52;;;;;;;8.73;1.90;;;;;;;16.78;77.54;102046.38;5036236;28;20076;-82
2022/09/19 11:13:22;;;;;;;8.25;1.90;;;;;;;16.67;73.63;102041.91;5009245;28;20049;-81
2022/09/19 11:16:06;;;;;;;9.07;2.28;;;;;;;16.70;75.06;102047.00;5029371;28;20101;-81
2022/09/19 11:19:01;;;;;;;8.60;1.80;;;;;;;16.79;73.28;102037.34;5019306;28;20571;-81
2022/09/19 11:21:48;;;;;;;6.20;1.70;;;;;;;16.77;73.75;102037.47;5021870;28;20037;-81
2022/09/19 11:24:26;;;;;;;10.35;1.80;;;;;;;16.78;72.60;102030.28;5040748;28;20117;-81
2022/09/19 11:27:20;;;;;;;12.70;2.10;;;;;;;16.81;74.13;102036.22;5036202;28;20044;-80
2022/09/19 11:29:53;;;;;;;7.82;1.48;;;;;;;16.75;71.58;102033.22;5034735;28;20041;-81
2022/09/19 11:32:49;;;;;;;7.53;1.85;;;;;;;16.81;72.17;102032.69;5029922;28;20036;-81
2022/09/19 11:35:32;;;;;;;11.13;2.35;;;;;;;16.66;70.89;102034.84;5027783;28;20045;-81
2022/09/19 11:38:28;;;;;;;7.03;1.63;;;;;;;16.57;71.50;102041.81;5033663;28;20167;-81
2022/09/19 11:41:06;;;;;;;9.32;1.70;;;;;;;16.28;70.36;102026.28;5031752;28;20050;-82
2022/09/19 11:43:52;;;;;;;10.88;2.13;;;;;;;16.35;70.00;102039.22;5036368;28;20022;-81
2022/09/19 11:46:23;;;;;;;6.82;1.52;;;;;;;16.29;70.66;102040.56;5026196;28;20030;-81
2022/09/19 11:49:15;;;;;;;5.95;1.25;;;;;;;16.39;71.73;102035.31;5033094;28;20090;-81
2022/09/19 11:51:54;;;;;;;8.27;1.85;;;;;;;16.65;70.13;102031.31;5026541;28;21021;-81
2022/09/19 11:54:47;;;;;;;7.03;1.90;;;;;;;16.77;70.41;102036.59;5026562;28;20080;-80